createdAt,value
2022-08-11T00:02:54.260Z,0.50
2022-08-11T00:05:57.091Z,0.50
2022-08-11T00:09:01.306Z,0.60
2022-08-11T00:12:04.118Z,0.57
2022-08-11T00:15:06.557Z,0.60
2022-08-11T00:18:10.507Z,0.60
2022-08-11T00:21:14.147Z,0.57
2022-08-11T00:24:16.757Z,0.55
2022-08-11T00:27:18.541Z,0.50
2022-08-11T00:30:20.138Z,0.50
2022-08-11T00:33:44.797Z,0.50
2022-08-11T00:36:50.602Z,0.60
2022-08-11T00:39:55.178Z,0.60
2022-08-11T00:43:19.290Z,0.65
2022-08-11T00:46:34.772Z,0.60
2022-08-11T00:49:47.482Z,0.68
2022-08-11T00:53:06.685Z,0.45
2022-08-11T00:56:33.331Z,0.50
2022-08-11T00:59:57.756Z,0.47
2022-08-11T01:03:17.471Z,0.45
2022-08-11T01:06:37.856Z,0.50
2022-08-11T01:09:56.121Z,0.50
2022-08-11T01:13:11.860Z,0.50
2022-08-11T01:16:47.341Z,0.50
2022-08-11T01:20:48.023Z,0.50
2022-08-11T01:24:06.108Z,0.50
2022-08-11T01:27:23.089Z,0.60
2022-08-11T01:30:54.501Z,0.40
2022-08-11T01:34:20.418Z,0.60
2022-08-11T01:37:51.567Z,0.50
2022-08-11T01:41:21.989Z,0.50
2022-08-11T01:44:48.739Z,0.60
2022-08-11T01:48:02.127Z,0.50
2022-08-11T01:51:24.677Z,0.60
2022-08-11T01:54:31.426Z,0.57
2022-08-11T01:57:40.526Z,0.60
2022-08-11T02:00:52.287Z,0.50
2022-08-11T02:03:58.084Z,0.60
2022-08-11T02:07:09.268Z,0.40
2022-08-11T02:10:38.266Z,0.50
2022-08-11T02:13:46.838Z,0.60
2022-08-11T02:17:06.733Z,0.50
2022-08-11T02:20:33.201Z,0.50
2022-08-11T02:24:05.036Z,0.60
2022-08-11T02:27:17.922Z,0.50
2022-08-11T02:30:27.622Z,0.40
2022-08-11T02:33:34.503Z,0.50
2022-08-11T02:36:44.741Z,0.40
2022-08-11T02:39:55.182Z,0.47
2022-08-11T02:43:09.391Z,0.50
2022-08-11T02:46:28.346Z,0.60
2022-08-11T02:50:00.027Z,0.50
2022-08-11T02:53:13.722Z,0.60
2022-08-11T02:56:26.011Z,0.57
2022-08-11T02:59:55.475Z,0.60
2022-08-11T03:03:16.488Z,0.60
2022-08-11T03:06:29.930Z,0.50
2022-08-11T03:09:45.238Z,0.40
2022-08-11T03:13:11.141Z,0.50
2022-08-11T03:16:36.178Z,0.63
2022-08-11T03:19:47.608Z,0.55
2022-08-11T03:22:57.316Z,0.60
2022-08-11T03:26:05.442Z,0.73
2022-08-11T03:29:18.378Z,0.70
2022-08-11T03:32:30.177Z,0.60
2022-08-11T03:35:37.035Z,0.70
2022-08-11T03:38:59.087Z,0.43
2022-08-11T03:42:12.825Z,0.50
2022-08-11T03:45:24.273Z,0.63
2022-08-11T03:48:38.994Z,0.50
2022-08-11T03:51:52.052Z,0.70
2022-08-11T03:55:03.803Z,0.50
2022-08-11T04:01:47.749Z,0.50
2022-08-11T04:05:16.514Z,0.50
2022-08-11T04:08:43.467Z,0.57
2022-08-11T04:12:08.572Z,0.60
2022-08-11T04:15:51.865Z,0.50
2022-08-11T04:19:23.351Z,0.40
2022-08-11T04:22:50.712Z,0.55
2022-08-11T04:26:18.802Z,0.80
2022-08-11T04:30:01.958Z,0.75
2022-08-11T04:33:34.324Z,0.50
2022-08-11T04:37:06.203Z,0.80
2022-08-11T04:40:42.619Z,0.80
2022-08-11T04:44:11.838Z,0.80
2022-08-11T04:48:03.357Z,0.80
2022-08-11T04:51:36.229Z,0.73
2022-08-11T04:55:08.727Z,0.85
2022-08-11T04:58:35.307Z,0.90
2022-08-11T05:01:58.099Z,1.10
2022-08-11T05:05:26.236Z,1.13
2022-08-11T05:08:51.400Z,1.17
2022-08-11T05:12:08.506Z,1.10
2022-08-11T05:15:26.376Z,0.82
2022-08-11T05:18:46.375Z,1.00
2022-08-11T05:22:11.744Z,0.98
2022-08-11T05:26:25.380Z,1.10
2022-08-11T05:29:19.289Z,1.13
2022-08-11T05:32:36.447Z,0.98
2022-08-11T05:36:00.632Z,1.13
2022-08-11T05:39:36.187Z,0.82
2022-08-11T05:42:56.313Z,0.90
2022-08-11T05:46:14.973Z,0.88
2022-08-11T05:49:26.457Z,0.90
2022-08-11T05:52:46.398Z,0.90
2022-08-11T05:56:06.271Z,1.00
2022-08-11T05:59:12.941Z,0.75
2022-08-11T06:02:14.979Z,0.93
2022-08-11T06:05:19.438Z,0.80
2022-08-11T06:08:29.430Z,0.70
2022-08-11T06:11:42.999Z,0.70
2022-08-11T06:14:46.439Z,0.70
2022-08-11T06:17:50.439Z,0.80
2022-08-11T06:20:54.240Z,0.88
2022-08-11T06:23:56.670Z,0.77
2022-08-11T06:27:12.268Z,0.80
2022-08-11T06:30:15.196Z,0.88
2022-08-11T06:33:29.591Z,0.75
2022-08-11T06:36:38.434Z,0.80
2022-08-11T06:39:50.034Z,0.57
2022-08-11T06:42:57.888Z,0.70
2022-08-11T06:46:03.247Z,0.80
2022-08-11T06:49:26.287Z,0.88
2022-08-11T06:52:45.188Z,0.90
2022-08-11T06:56:03.815Z,0.73
2022-08-11T06:59:17.026Z,0.82
2022-08-11T07:02:29.146Z,0.63
2022-08-11T07:05:43.195Z,0.75
2022-08-11T07:09:23.640Z,1.05
2022-08-11T07:12:54.253Z,0.80
2022-08-11T07:16:10.535Z,0.50
2022-08-11T07:19:27.095Z,0.63
2022-08-11T07:22:46.857Z,1.00
2022-08-11T07:26:06.855Z,0.68
2022-08-11T07:29:10.642Z,0.60
2022-08-11T07:32:22.558Z,0.60
2022-08-11T07:35:27.832Z,0.60
2022-08-11T07:38:43.524Z,0.80
2022-08-11T07:41:50.581Z,0.70
2022-08-11T07:45:07.072Z,0.70
2022-08-11T07:48:24.899Z,0.85
2022-08-11T07:51:37.049Z,0.70
2022-08-11T07:54:40.140Z,0.63
2022-08-11T07:58:16.164Z,0.60
2022-08-11T08:01:35.624Z,0.60
2022-08-11T08:04:55.389Z,0.60
2022-08-11T08:08:07.074Z,0.50
2022-08-11T08:11:27.277Z,0.47
2022-08-11T08:14:44.568Z,0.60
2022-08-11T08:18:09.137Z,0.50
2022-08-11T08:21:18.977Z,0.45
2022-08-11T08:24:21.446Z,0.43
2022-08-11T08:27:27.655Z,0.52
2022-08-11T08:30:47.031Z,0.50
2022-08-11T08:33:48.996Z,0.45
2022-08-11T08:36:51.864Z,0.45
2022-08-11T08:39:54.484Z,0.30
2022-08-11T08:42:58.104Z,0.55
2022-08-11T08:46:01.075Z,0.40
2022-08-11T08:49:03.943Z,0.40
2022-08-11T08:52:21.141Z,0.50
2022-08-11T08:55:31.143Z,0.50
2022-08-11T08:58:39.234Z,0.30
2022-08-11T09:01:47.520Z,0.32
2022-08-11T09:04:49.970Z,0.38
2022-08-11T09:07:56.871Z,0.52
2022-08-11T09:11:14.426Z,0.38
2022-08-11T09:14:16.712Z,0.32
2022-08-11T09:17:19.301Z,0.40
2022-08-11T09:20:24.181Z,0.30
2022-08-11T09:27:03.796Z,0.30
2022-08-11T09:30:06.800Z,0.25
2022-08-11T09:33:15.259Z,0.43
2022-08-11T09:36:34.098Z,0.28
2022-08-11T09:39:54.894Z,0.30
2022-08-11T09:43:07.298Z,0.30
2022-08-11T09:46:09.929Z,0.35
2022-08-11T09:49:12.220Z,0.30
2022-08-11T09:52:18.327Z,0.25
2022-08-11T09:55:20.577Z,0.30
2022-08-11T09:58:42.130Z,0.40
2022-08-11T10:01:48.654Z,0.43
2022-08-11T10:05:15.756Z,0.30
2022-08-11T10:08:18.546Z,0.40
2022-08-11T10:11:24.216Z,0.30
2022-08-11T10:14:44.756Z,0.40
2022-08-11T10:18:07.068Z,0.22
2022-08-11T10:21:13.780Z,0.40
2022-08-11T10:24:27.264Z,0.50
2022-08-11T10:28:17.487Z,0.40
2022-08-11T10:31:06.933Z,0.60
2022-08-11T10:34:15.913Z,0.38
2022-08-11T10:37:23.623Z,0.40
2022-08-11T10:40:25.503Z,0.50
2022-08-11T10:44:02.483Z,0.40
2022-08-11T10:47:04.252Z,0.40
2022-08-11T10:50:23.931Z,0.30
2022-08-11T10:53:37.242Z,0.30
2022-08-11T10:56:54.491Z,0.40
2022-08-11T10:59:57.391Z,0.40
2022-08-11T11:03:16.807Z,0.30
2022-08-11T11:06:29.428Z,0.43
2022-08-11T11:09:34.134Z,0.40
2022-08-11T11:12:56.069Z,0.22
2022-08-11T11:16:13.170Z,0.40
2022-08-11T11:19:18.349Z,0.38
2022-08-11T11:22:36.318Z,0.25
2022-08-11T11:26:09.257Z,0.40
2022-08-11T11:29:27.008Z,0.30
2022-08-11T11:32:40.837Z,0.50
2022-08-11T11:35:55.647Z,0.40
2022-08-11T11:38:58.298Z,0.30
2022-08-11T11:42:03.468Z,0.50
2022-08-11T11:45:06.385Z,0.30
2022-08-11T11:48:11.361Z,0.30
2022-08-11T11:51:13.338Z,0.40
2022-08-11T11:54:16.044Z,0.30
2022-08-11T11:57:34.479Z,0.30
2022-08-11T12:00:47.414Z,0.30
2022-08-11T12:03:52.325Z,0.30
2022-08-11T12:07:14.225Z,0.50
2022-08-11T12:10:20.295Z,0.40
2022-08-11T12:13:36.602Z,0.28
2022-08-11T12:16:40.955Z,0.38
2022-08-11T12:19:43.292Z,0.30
2022-08-11T12:23:04.994Z,0.30
2022-08-11T12:26:27.086Z,0.70
2022-08-11T12:29:29.322Z,0.30
2022-08-11T12:32:33.945Z,0.40
2022-08-11T12:35:37.127Z,0.75
2022-08-11T12:38:38.910Z,0.40
2022-08-11T12:41:57.151Z,0.30
2022-08-11T12:45:22.291Z,0.40
2022-08-11T12:48:59.636Z,0.28
2022-08-11T12:52:13.376Z,0.40
2022-08-11T12:55:37.261Z,0.38
2022-08-11T12:58:41.392Z,0.40
2022-08-11T13:01:57.359Z,0.32
2022-08-11T13:04:59.172Z,0.30
2022-08-11T13:08:03.239Z,0.30
2022-08-11T13:11:17.344Z,0.30
2022-08-11T13:14:19.477Z,0.30
2022-08-11T13:17:44.088Z,0.32
2022-08-11T13:20:47.617Z,0.30
2022-08-11T13:24:01.473Z,0.40
2022-08-11T13:27:04.858Z,0.40
2022-08-11T13:30:18.038Z,0.30
2022-08-11T13:33:20.205Z,0.30
2022-08-11T13:36:26.367Z,0.38
2022-08-11T13:39:31.535Z,0.50
2022-08-11T13:42:33.435Z,0.38
2022-08-11T13:45:36.526Z,0.40
2022-08-11T13:48:39.279Z,0.50
2022-08-11T13:51:41.269Z,0.30
2022-08-11T13:54:47.184Z,0.40
2022-08-11T13:58:19.286Z,0.40
2022-08-11T14:02:19.886Z,0.32
2022-08-11T14:04:40.029Z,0.32
2022-08-11T14:07:47.529Z,0.40
2022-08-11T14:12:22.264Z,0.30
2022-08-11T14:14:34.776Z,0.30
2022-08-11T14:17:48.089Z,0.30
2022-08-11T14:21:08.102Z,0.30
2022-08-11T14:24:11.162Z,0.40
2022-08-11T14:28:25.750Z,0.30
2022-08-11T14:30:55.374Z,0.50
2022-08-11T14:34:03.420Z,0.30
2022-08-11T14:37:10.637Z,0.50
2022-08-11T14:40:33.357Z,0.50
2022-08-11T14:44:13.527Z,0.32
2022-08-11T14:47:24.500Z,0.50
2022-08-11T14:50:28.759Z,0.50
2022-08-11T14:53:31.108Z,0.40
2022-08-11T14:56:36.403Z,0.40
2022-08-11T14:59:39.077Z,0.60
2022-08-11T15:02:56.727Z,0.40
2022-08-11T15:06:01.316Z,0.40
2022-08-11T15:09:08.357Z,0.30
2022-08-11T15:12:32.534Z,0.50
2022-08-11T15:15:48.085Z,0.30
2022-08-11T15:18:50.215Z,0.40
2022-08-11T15:22:06.535Z,0.40
2022-08-11T15:25:08.615Z,0.30
2022-08-11T15:28:25.464Z,0.30
2022-08-11T15:31:49.497Z,0.30
2022-08-11T15:35:08.082Z,0.30
2022-08-11T15:38:13.582Z,0.20
2022-08-11T15:41:28.103Z,0.30
2022-08-11T15:45:02.177Z,0.20
2022-08-11T15:48:09.103Z,0.30
2022-08-11T15:51:21.822Z,0.30
2022-08-11T15:54:33.773Z,0.40
2022-08-11T15:57:48.060Z,0.40
2022-08-11T16:01:09.268Z,0.40
2022-08-11T16:04:17.430Z,0.30
2022-08-11T16:07:26.646Z,0.50
2022-08-11T16:10:29.730Z,0.30
2022-08-11T16:13:48.089Z,0.30
2022-08-11T16:16:53.698Z,0.30
2022-08-11T16:19:57.899Z,0.28
2022-08-11T16:23:03.308Z,0.30
2022-08-11T16:27:08.535Z,0.50
2022-08-11T16:29:30.938Z,0.30
2022-08-11T16:32:33.997Z,0.35
2022-08-11T16:35:48.077Z,0.30
2022-08-11T16:38:50.245Z,0.30
2022-08-11T16:42:07.300Z,0.20
2022-08-11T16:45:23.936Z,0.30
2022-08-11T16:48:33.154Z,0.28
2022-08-11T16:51:40.267Z,0.30
2022-08-11T16:54:44.378Z,0.38
2022-08-11T16:57:58.174Z,0.35
2022-08-11T17:01:01.962Z,0.20
2022-08-11T17:04:26.314Z,0.30
2022-08-11T17:07:48.082Z,0.30
2022-08-11T17:11:07.630Z,0.40
2022-08-11T17:14:14.623Z,0.38
2022-08-11T17:17:23.242Z,0.30
2022-08-11T17:20:39.649Z,0.35
2022-08-11T17:23:49.625Z,0.20
2022-08-11T17:26:56.203Z,0.57
2022-08-11T17:30:01.031Z,0.30
2022-08-11T17:33:17.350Z,0.30
2022-08-11T17:36:20.313Z,0.25
2022-08-11T17:39:28.290Z,0.30
2022-08-11T17:42:46.132Z,0.40
2022-08-11T17:45:58.394Z,0.40
2022-08-11T17:49:01.110Z,0.28
2022-08-11T17:52:18.372Z,0.40
2022-08-11T17:55:52.361Z,0.20
2022-08-11T17:59:08.363Z,0.30
2022-08-11T18:02:34.643Z,0.28
2022-08-11T18:05:42.828Z,0.30
2022-08-11T18:08:58.418Z,0.30
2022-08-11T18:12:17.143Z,0.30
2022-08-11T18:15:29.848Z,0.30
2022-08-11T18:18:48.208Z,0.25
2022-08-11T18:22:14.380Z,0.28
2022-08-11T18:25:39.766Z,0.20
2022-08-11T18:28:58.426Z,0.30
2022-08-11T18:32:22.061Z,0.20
2022-08-11T18:35:38.515Z,0.30
2022-08-11T18:38:57.225Z,0.32
2022-08-11T18:42:29.298Z,0.30
2022-08-11T18:45:48.353Z,0.30
2022-08-11T18:49:16.698Z,0.30
2022-08-11T18:52:34.145Z,0.30
2022-08-11T18:55:48.487Z,0.30
2022-08-11T18:59:06.193Z,0.30
2022-08-11T19:02:25.083Z,0.20
2022-08-11T19:06:32.026Z,0.40
2022-08-11T19:09:28.426Z,0.30
2022-08-11T19:12:48.462Z,0.20
2022-08-11T19:16:05.896Z,0.30
2022-08-11T19:19:24.672Z,0.30
2022-08-11T19:22:44.092Z,0.30
2022-08-11T19:25:58.455Z,0.20
2022-08-11T19:30:07.015Z,0.30
2022-08-11T19:32:54.611Z,0.30
2022-08-11T19:36:08.566Z,0.32
2022-08-11T19:39:26.221Z,0.30
2022-08-11T19:42:43.630Z,0.20
2022-08-11T19:45:58.467Z,0.30
2022-08-11T19:49:15.151Z,0.30
2022-08-11T19:52:28.500Z,0.50
2022-08-11T19:55:45.180Z,0.30
2022-08-11T19:58:58.469Z,0.30
2022-08-11T20:02:14.892Z,0.40
2022-08-11T20:05:35.359Z,0.30
2022-08-11T20:08:58.607Z,0.35
2022-08-11T20:12:17.559Z,0.40
2022-08-11T20:15:38.436Z,0.30
2022-08-11T20:18:56.608Z,0.40
2022-08-11T20:22:08.823Z,0.30
2022-08-11T20:25:27.883Z,0.40
2022-08-11T20:28:45.925Z,0.30
2022-08-11T20:31:58.490Z,0.50
2022-08-11T20:35:15.735Z,0.28
2022-08-11T20:38:34.927Z,0.43
2022-08-11T20:41:58.826Z,0.30
2022-08-11T20:45:17.964Z,0.38
2022-08-11T20:48:38.455Z,0.35
2022-08-11T20:51:56.794Z,0.30
2022-08-11T20:55:20.959Z,0.57
2022-08-11T20:59:13.944Z,0.40
2022-08-11T21:02:23.936Z,0.35
2022-08-11T21:06:08.268Z,0.40
2022-08-11T21:09:19.715Z,0.30
2022-08-11T21:12:41.031Z,0.40
2022-08-11T21:16:02.951Z,0.25
2022-08-11T21:20:01.342Z,0.30
2022-08-11T21:23:07.781Z,0.30
2022-08-11T21:26:28.470Z,0.30
2022-08-11T21:29:46.730Z,0.35
2022-08-11T21:33:04.639Z,0.30
2022-08-11T21:36:18.490Z,0.40
2022-08-11T21:39:37.696Z,0.30
2022-08-11T21:42:57.809Z,0.35
2022-08-11T21:46:15.247Z,0.38
2022-08-11T21:49:34.297Z,0.40
2022-08-11T21:52:48.511Z,0.30
2022-08-11T21:56:06.856Z,0.35
2022-08-11T21:59:24.702Z,0.30
2022-08-11T22:02:38.673Z,0.50
2022-08-11T22:05:58.516Z,0.50
2022-08-11T22:09:15.535Z,0.50
2022-08-11T22:12:29.497Z,0.50
2022-08-11T22:15:47.217Z,0.30
2022-08-11T22:19:05.148Z,0.47
2022-08-11T22:22:26.244Z,0.40
2022-08-11T22:28:58.504Z,0.45
2022-08-11T22:32:15.448Z,0.40
2022-08-11T22:35:28.780Z,0.57
2022-08-11T22:38:47.763Z,0.57
2022-08-11T22:42:03.933Z,0.50
2022-08-11T22:45:18.535Z,0.63
2022-08-11T22:48:36.252Z,0.55
2022-08-11T22:51:54.102Z,0.50
2022-08-11T22:55:08.875Z,0.57
2022-08-11T22:58:28.529Z,0.50
2022-08-11T23:01:55.377Z,0.57
2022-08-11T23:05:14.469Z,0.50
2022-08-11T23:08:28.607Z,0.40
2022-08-11T23:12:07.229Z,0.50
2022-08-11T23:15:18.587Z,0.70
2022-08-11T23:18:38.044Z,0.60
2022-08-11T23:21:55.009Z,0.47
2022-08-11T23:25:08.582Z,0.50
2022-08-11T23:28:35.249Z,0.50
2022-08-11T23:31:51.336Z,0.50
2022-08-11T23:35:38.090Z,0.73
2022-08-11T23:38:45.908Z,0.50
2022-08-11T23:41:58.597Z,0.60
2022-08-11T23:45:18.465Z,0.57
2022-08-11T23:48:38.633Z,0.50
2022-08-11T23:51:58.915Z,0.60
2022-08-11T23:55:15.828Z,0.70
2022-08-11T23:58:28.606Z,0.60
